Time;durP1;ratioP1;P1;durP2;ratioP2;P2;SDS_P1;SDS_P2;PMS_P1;PMS_P2;Temp;Humidity;BMP_temperature;BMP_pressure;BME280_temperature;BME280_humidity;BME280_pressure;Samples;Min_cycle;Max_cycle;Signal;HPM_P1;HPM_P2
2023/04/10 00:02:08;;;;;;;16.80;11.60;;;10.90;99.90;;;;;;5127513;27;20027;-67
2023/04/10 00:04:34;;;;;;;16.27;10.95;;;10.90;99.90;;;;;;5116942;27;20039;-69
2023/04/10 00:07:00;;;;;;;13.52;11.48;;;10.80;99.90;;;;;;5123032;28;20069;-67
2023/04/10 00:09:26;;;;;;;14.55;10.48;;;10.80;99.90;;;;;;5126448;28;20016;-68
2023/04/10 00:11:53;;;;;;;12.80;10.27;;;10.80;99.90;;;;;;5120477;28;20117;-67
2023/04/10 00:14:22;;;;;;;14.80;10.65;;;10.80;99.90;;;;;;5125961;27;20023;-68
2023/04/10 00:16:48;;;;;;;14.48;11.35;;;10.80;99.90;;;;;;5122203;27;20047;-68
2023/04/10 00:19:14;;;;;;;15.65;11.05;;;10.70;99.90;;;;;;5115222;27;20023;-67
2023/04/10 00:21:40;;;;;;;13.07;9.88;;;10.60;99.90;;;;;;5125120;28;20028;-68
2023/04/10 00:24:06;;;;;;;13.80;10.63;;;10.60;99.90;;;;;;5122223;27;20483;-68
2023/04/10 00:26:31;;;;;;;14.18;10.13;;;10.60;99.90;;;;;;5122870;28;20031;-68
2023/04/10 00:28:57;;;;;;;14.05;9.93;;;10.60;99.90;;;;;;5123838;28;20031;-68
2023/04/10 00:31:23;;;;;;;14.00;10.43;;;10.50;99.90;;;;;;5126615;27;20106;-68
2023/04/10 00:33:48;;;;;;;14.05;10.50;;;10.50;99.90;;;;;;5120576;27;20023;-68
2023/04/10 00:36:15;;;;;;;14.90;11.07;;;10.40;99.90;;;;;;5123926;28;20024;-69
2023/04/10 00:38:40;;;;;;;12.52;10.23;;;10.50;99.90;;;;;;5122069;27;20046;-67
2023/04/10 00:41:06;;;;;;;12.95;9.77;;;10.60;99.90;;;;;;5120935;27;20333;-67
2023/04/10 00:43:32;;;;;;;11.95;9.05;;;10.50;99.90;;;;;;5123331;27;20027;-68
2023/04/10 00:45:58;;;;;;;12.65;9.43;;;10.50;99.90;;;;;;5123270;27;20023;-67
2023/04/10 00:48:25;;;;;;;10.98;9.10;;;10.40;99.90;;;;;;5125231;27;20068;-69
2023/04/10 00:50:50;;;;;;;11.60;8.88;;;10.40;99.90;;;;;;5125496;27;20057;-68
2023/04/10 00:53:16;;;;;;;14.02;10.13;;;10.40;99.90;;;;;;5123117;27;20136;-68
2023/04/10 00:55:43;;;;;;;15.07;11.10;;;10.50;99.90;;;;;;5124931;27;20027;-69
2023/04/10 00:58:13;;;;;;;12.15;9.00;;;10.40;99.90;;;;;;5131587;27;20058;-67
2023/04/10 01:00:39;;;;;;;12.25;9.48;;;10.40;99.90;;;;;;5124164;27;20310;-68
2023/04/10 01:03:06;;;;;;;13.98;9.52;;;10.40;99.90;;;;;;5125154;27;20027;-69
2023/04/10 01:05:38;;;;;;;11.68;9.20;;;10.40;99.90;;;;;;5124540;27;20015;-67
2023/04/10 01:08:42;;;;;;;12.60;9.90;;;10.30;99.90;;;;;;5129142;27;20095;-68
2023/04/10 01:11:53;;;;;;;10.60;8.82;;;10.40;99.90;;;;;;5125801;27;20046;-67
2023/04/10 01:14:55;;;;;;;12.13;8.88;;;10.30;99.90;;;;;;5109736;27;20049;-67
2023/04/10 01:17:42;;;;;;;12.15;8.95;;;10.40;99.90;;;;;;5108276;27;20035;-68
2023/04/10 01:20:23;;;;;;;10.30;7.55;;;10.40;99.90;;;;;;5125918;27;20106;-68
2023/04/10 01:23:19;;;;;;;12.80;8.38;;;10.30;99.90;;;;;;5130526;27;20039;-68
2023/04/10 01:26:02;;;;;;;11.55;7.85;;;10.30;99.90;;;;;;5125774;27;20019;-67
2023/04/10 01:28:40;;;;;;;11.70;9.20;;;10.30;99.90;;;;;;5120985;27;20031;-67
2023/04/10 01:31:09;;;;;;;10.38;8.65;;;10.30;99.90;;;;;;5125936;27;20387;-67
2023/04/10 01:33:49;;;;;;;11.82;8.48;;;10.30;99.90;;;;;;5121792;27;20023;-67
2023/04/10 01:36:23;;;;;;;10.90;8.00;;;10.30;99.90;;;;;;5116237;27;20015;-67
2023/04/10 01:38:51;;;;;;;13.02;8.82;;;10.30;99.90;;;;;;5127266;27;20434;-67
2023/04/10 01:41:18;;;;;;;11.85;7.85;;;10.30;99.90;;;;;;5127875;27;20077;-67
2023/04/10 01:43:47;;;;;;;10.40;8.15;;;10.30;99.90;;;;;;5124969;27;20016;-70
2023/04/10 01:46:15;;;;;;;11.52;8.38;;;10.30;99.90;;;;;;5126913;27;20023;-67
2023/04/10 01:48:42;;;;;;;11.27;7.90;;;10.30;99.90;;;;;;5125105;27;20538;-67
2023/04/10 01:51:10;;;;;;;10.85;7.47;;;10.20;99.90;;;;;;5127209;27;20050;-68
2023/04/10 01:53:36;;;;;;;10.55;8.50;;;10.20;99.90;;;;;;5122061;27;20019;-68
2023/04/10 01:56:02;;;;;;;14.30;8.88;;;10.20;99.90;;;;;;5123710;27;20027;-68
2023/04/10 01:58:29;;;;;;;13.75;8.63;;;10.10;99.90;;;;;;5121570;27;20374;-68
2023/04/10 02:00:54;;;;;;;12.75;8.93;;;10.10;99.90;;;;;;5122827;27;20088;-67
2023/04/10 02:03:20;;;;;;;10.18;8.00;;;10.10;99.90;;;;;;5120040;27;20496;-68
2023/04/10 02:06:01;;;;;;;11.70;8.05;;;10.10;99.90;;;;;;5125704;27;20111;-67
2023/04/10 02:08:35;;;;;;;11.10;8.18;;;10.00;99.90;;;;;;5122728;27;20019;-68
2023/04/10 02:11:03;;;;;;;8.18;7.22;;;10.00;99.90;;;;;;5124122;27;20050;-68
2023/04/10 02:13:32;;;;;;;10.73;8.45;;;9.90;99.90;;;;;;5124604;27;20106;-68
2023/04/10 02:16:00;;;;;;;11.88;9.77;;;9.90;99.90;;;;;;5121835;27;20023;-71
2023/04/10 02:18:26;;;;;;;12.27;7.90;;;9.90;99.90;;;;;;5128179;27;20027;-68
2023/04/10 02:20:53;;;;;;;11.38;8.60;;;9.80;99.90;;;;;;5126459;27;20387;-68
2023/04/10 02:23:19;;;;;;;12.43;8.80;;;9.60;99.90;;;;;;5122457;27;20558;-68
2023/04/10 02:25:45;;;;;;;12.15;8.52;;;9.50;99.90;;;;;;5131828;27;20080;-68
2023/04/10 02:28:11;;;;;;;12.38;8.68;;;9.60;99.90;;;;;;5124847;27;20413;-68
2023/04/10 02:30:38;;;;;;;13.75;8.90;;;9.60;99.90;;;;;;5122543;27;20047;-68
2023/04/10 02:33:04;;;;;;;10.00;8.43;;;9.50;99.90;;;;;;5121769;27;20514;-67
2023/04/10 02:35:30;;;;;;;12.02;8.27;;;9.50;99.90;;;;;;5125962;27;20029;-68
2023/04/10 02:37:56;;;;;;;11.32;7.78;;;9.60;99.90;;;;;;5129048;27;20356;-68
2023/04/10 02:40:21;;;;;;;9.65;7.90;;;9.60;99.90;;;;;;5122458;27;20020;-67
2023/04/10 02:42:47;;;;;;;10.40;8.75;;;9.50;99.90;;;;;;5124511;27;20126;-68
2023/04/10 02:45:13;;;;;;;12.30;9.63;;;9.50;99.90;;;;;;5123475;27;20019;-67
2023/04/10 02:47:38;;;;;;;11.35;8.48;;;9.40;99.90;;;;;;5126298;27;20055;-67
2023/04/10 02:50:04;;;;;;;9.70;7.90;;;9.50;99.90;;;;;;5121721;27;20031;-68
2023/04/10 02:52:30;;;;;;;9.73;8.00;;;9.50;99.90;;;;;;5125357;27;20030;-69
2023/04/10 02:54:56;;;;;;;12.88;8.32;;;9.60;99.90;;;;;;5120471;27;20023;-67
2023/04/10 02:57:21;;;;;;;11.25;8.25;;;9.60;99.90;;;;;;5126389;27;20027;-67
2023/04/10 02:59:50;;;;;;;13.23;9.45;;;9.50;99.90;;;;;;5119535;27;20023;-68
2023/04/10 03:02:16;;;;;;;11.93;8.70;;;9.50;99.90;;;;;;5125015;27;20039;-67
2023/04/10 03:04:42;;;;;;;9.80;8.60;;;9.50;99.90;;;;;;5121420;27;20016;-68
2023/04/10 03:07:08;;;;;;;10.82;8.48;;;9.50;99.90;;;;;;5123609;27;20042;-68
2023/04/10 03:09:34;;;;;;;11.57;8.45;;;9.50;99.90;;;;;;5127216;27;20026;-68
2023/04/10 03:12:00;;;;;;;10.90;8.57;;;9.50;99.90;;;;;;5122415;27;20031;-68
2023/04/10 03:14:26;;;;;;;11.10;8.82;;;9.50;99.90;;;;;;5124655;27;20110;-68
2023/04/10 03:16:52;;;;;;;13.93;9.80;;;9.50;99.90;;;;;;5127257;27;20155;-69
2023/04/10 03:19:18;;;;;;;15.65;9.68;;;9.50;99.90;;;;;;5121568;27;20022;-68
2023/04/10 03:21:45;;;;;;;12.43;8.80;;;9.50;99.90;;;;;;5124120;27;20035;-68
2023/04/10 03:24:10;;;;;;;11.57;9.13;;;9.50;99.90;;;;;;5118502;27;20506;-68
2023/04/10 03:26:36;;;;;;;10.23;8.65;;;9.60;99.90;;;;;;5123920;27;20023;-68
2023/04/10 03:29:02;;;;;;;14.20;8.90;;;9.60;99.90;;;;;;5126647;27;20027;-68
2023/04/10 03:31:28;;;;;;;10.38;7.93;;;9.50;99.90;;;;;;5122017;27;20127;-68
2023/04/10 03:33:54;;;;;;;11.68;8.45;;;9.60;99.90;;;;;;5118683;27;20031;-68
2023/04/10 03:36:20;;;;;;;12.07;8.50;;;9.50;99.90;;;;;;5124013;27;20097;-67
2023/04/10 03:38:46;;;;;;;11.30;8.43;;;9.50;99.90;;;;;;5120473;27;20023;-68
2023/04/10 03:41:11;;;;;;;13.68;9.27;;;9.40;99.90;;;;;;5124323;27;20127;-68
2023/04/10 03:43:38;;;;;;;11.35;8.23;;;9.30;99.90;;;;;;5121377;27;20027;-69
2023/04/10 03:46:03;;;;;;;12.57;8.85;;;9.30;99.90;;;;;;5123666;27;20444;-68
2023/04/10 03:48:31;;;;;;;11.60;8.07;;;9.30;99.90;;;;;;5121347;27;20052;-67
2023/04/10 03:50:57;;;;;;;11.23;8.40;;;9.30;99.90;;;;;;5120669;27;20074;-68
2023/04/10 03:53:23;;;;;;;11.40;7.70;;;9.20;99.90;;;;;;5124095;27;20487;-68
2023/04/10 03:55:48;;;;;;;11.20;7.82;;;9.30;99.90;;;;;;5124348;27;20038;-69
2023/04/10 03:58:14;;;;;;;10.68;8.15;;;9.20;99.90;;;;;;5121338;27;20387;-67
2023/04/10 04:00:40;;;;;;;12.82;7.50;;;9.20;99.90;;;;;;5122694;27;20020;-67
2023/04/10 04:03:05;;;;;;;12.10;8.88;;;9.10;99.90;;;;;;5122714;27;20034;-69
2023/04/10 04:05:31;;;;;;;12.90;9.77;;;9.20;99.90;;;;;;5124641;28;20027;-69
2023/04/10 04:07:57;;;;;;;10.15;8.07;;;9.20;99.90;;;;;;5123716;27;20051;-67
2023/04/10 04:10:23;;;;;;;14.75;9.55;;;9.20;99.90;;;;;;5118831;27;20073;-68
2023/04/10 04:12:49;;;;;;;11.82;9.25;;;9.20;99.90;;;;;;5124630;28;20023;-67
2023/04/10 04:15:15;;;;;;;12.68;10.10;;;9.20;99.90;;;;;;5123058;27;20030;-67
2023/04/10 04:17:41;;;;;;;12.50;9.48;;;9.20;99.90;;;;;;5125592;27;20039;-67
2023/04/10 04:20:07;;;;;;;11.95;8.93;;;9.20;99.90;;;;;;5126207;27;20034;-68
2023/04/10 04:22:33;;;;;;;13.30;9.48;;;9.20;99.90;;;;;;5127319;27;20039;-67
2023/04/10 04:24:59;;;;;;;10.77;8.45;;;9.10;99.90;;;;;;5132161;27;20026;-68
2023/04/10 04:27:24;;;;;;;12.63;9.25;;;9.00;99.90;;;;;;5122964;27;20031;-68
2023/04/10 04:29:50;;;;;;;13.05;9.48;;;9.10;99.90;;;;;;5126107;27;20023;-68
2023/04/10 04:32:15;;;;;;;14.35;9.70;;;9.10;99.90;;;;;;5128544;27;20019;-67
2023/04/10 04:34:41;;;;;;;13.38;9.23;;;9.10;99.90;;;;;;5120859;27;20868;-68
2023/04/10 04:37:07;;;;;;;11.52;8.70;;;9.00;99.90;;;;;;5126154;27;20031;-67
2023/04/10 04:39:32;;;;;;;12.07;9.50;;;8.90;99.90;;;;;;5126790;27;20107;-68
2023/04/10 04:41:58;;;;;;;14.70;9.35;;;8.90;99.90;;;;;;5125177;27;20080;-68
2023/04/10 04:44:24;;;;;;;15.65;9.10;;;8.80;99.90;;;;;;5131919;27;20381;-67
2023/04/10 04:46:49;;;;;;;14.38;10.07;;;8.80;99.90;;;;;;5124795;27;20030;-67
2023/04/10 04:49:15;;;;;;;15.25;9.93;;;8.80;99.90;;;;;;5127373;27;20029;-67
2023/04/10 04:51:41;;;;;;;14.65;9.82;;;8.80;99.90;;;;;;5121009;27;20066;-67
2023/04/10 04:54:06;;;;;;;12.73;9.68;;;8.80;99.90;;;;;;5129000;27;20427;-68
2023/04/10 04:56:32;;;;;;;13.45;9.57;;;8.70;99.90;;;;;;5129351;27;20108;-67
2023/04/10 04:58:57;;;;;;;12.52;9.50;;;8.60;99.90;;;;;;5126053;27;20467;-68
2023/04/10 05:01:23;;;;;;;14.43;9.40;;;8.60;99.90;;;;;;5121762;27;20066;-68
2023/04/10 05:03:49;;;;;;;11.88;8.85;;;8.60;99.90;;;;;;5128472;27;20062;-67
2023/04/10 05:06:16;;;;;;;14.45;10.88;;;8.50;99.90;;;;;;5122282;27;20053;-67
2023/04/10 05:08:42;;;;;;;13.23;9.50;;;8.40;99.90;;;;;;5129855;27;20053;-67
2023/04/10 05:11:08;;;;;;;16.83;11.23;;;8.50;99.90;;;;;;5122980;27;20038;-68
2023/04/10 05:13:33;;;;;;;12.77;9.13;;;8.50;99.90;;;;;;5128106;27;20027;-68
2023/04/10 05:15:59;;;;;;;13.20;9.88;;;8.60;99.90;;;;;;5124963;27;20030;-68
2023/04/10 05:18:24;;;;;;;16.38;9.68;;;8.50;99.90;;;;;;5127349;27;20559;-67
2023/04/10 05:20:50;;;;;;;15.93;11.10;;;8.60;99.90;;;;;;5122216;27;20046;-68
2023/04/10 05:23:16;;;;;;;13.40;10.00;;;8.60;99.90;;;;;;5124854;27;20031;-68
2023/04/10 05:25:42;;;;;;;16.55;11.30;;;8.60;99.90;;;;;;5125191;27;20072;-67
2023/04/10 05:28:07;;;;;;;15.15;10.07;;;8.60;99.90;;;;;;5126515;27;20027;-68
2023/04/10 05:30:33;;;;;;;15.27;10.52;;;8.60;99.90;;;;;;5121595;27;20503;-68
2023/04/10 05:32:59;;;;;;;15.50;11.02;;;8.60;99.90;;;;;;5126282;27;20035;-68
2023/04/10 05:35:24;;;;;;;13.95;10.50;;;8.60;99.90;;;;;;5128627;27;20067;-68
2023/04/10 05:37:50;;;;;;;14.98;10.30;;;8.70;99.90;;;;;;5122552;27;20034;-68
2023/04/10 05:40:16;;;;;;;14.00;11.60;;;8.70;99.90;;;;;;5122680;27;20026;-67
2023/04/10 05:42:41;;;;;;;14.27;11.00;;;8.70;99.90;;;;;;5125840;27;20505;-68
2023/04/10 05:45:07;;;;;;;17.27;10.70;;;8.80;99.90;;;;;;5128456;27;20019;-68
2023/04/10 05:47:33;;;;;;;14.68;10.65;;;8.80;99.90;;;;;;5122235;27;20031;-67
2023/04/10 05:49:59;;;;;;;17.67;11.43;;;8.90;99.90;;;;;;5124799;27;20088;-68
2023/04/10 05:52:24;;;;;;;13.88;10.05;;;8.90;99.90;;;;;;5121789;27;20109;-68
2023/04/10 05:54:51;;;;;;;15.73;10.75;;;8.90;99.90;;;;;;5129157;27;20379;-67
2023/04/10 05:57:17;;;;;;;14.60;9.02;;;9.00;99.90;;;;;;5119357;27;20031;-67
2023/04/10 05:59:42;;;;;;;14.30;10.07;;;9.00;99.90;;;;;;5122621;27;20093;-68
2023/04/10 06:02:08;;;;;;;15.43;10.55;;;9.00;99.90;;;;;;5124231;27;20066;-68
2023/04/10 06:04:34;;;;;;;15.02;10.32;;;9.10;99.90;;;;;;5123917;27;20026;-67
2023/04/10 06:07:00;;;;;;;15.23;11.10;;;9.10;99.90;;;;;;5125100;27;20110;-67
2023/04/10 06:09:25;;;;;;;16.38;11.85;;;9.20;99.90;;;;;;5129801;27;20027;-66
2023/04/10 06:11:52;;;;;;;15.55;11.98;;;9.20;99.90;;;;;;5120557;27;20031;-68
2023/04/10 06:14:19;;;;;;;17.65;13.48;;;9.20;99.90;;;;;;5127458;27;20020;-67
2023/04/10 06:16:44;;;;;;;16.30;13.13;;;9.20;99.90;;;;;;5125121;27;20090;-67
2023/04/10 06:19:10;;;;;;;14.10;11.77;;;9.10;99.90;;;;;;5124374;27;20079;-67
2023/04/10 06:21:36;;;;;;;19.48;12.75;;;9.10;99.90;;;;;;5125644;27;20066;-67
2023/04/10 06:24:02;;;;;;;16.88;12.73;;;9.20;99.90;;;;;;5126534;27;20023;-68
2023/04/10 06:26:28;;;;;;;14.50;10.88;;;9.20;99.90;;;;;;5125038;27;20532;-67
2023/04/10 06:28:54;;;;;;;16.83;11.95;;;9.20;99.90;;;;;;5124110;27;20073;-67
2023/04/10 06:31:20;;;;;;;19.30;12.93;;;9.30;99.90;;;;;;5123484;27;20443;-67
2023/04/10 06:33:47;;;;;;;16.13;12.18;;;9.30;99.90;;;;;;5121948;27;20054;-67
2023/04/10 06:36:13;;;;;;;20.55;14.07;;;9.40;99.90;;;;;;5122963;27;20023;-67
2023/04/10 06:38:39;;;;;;;16.17;11.77;;;9.40;99.90;;;;;;5124732;27;20072;-67
2023/04/10 06:41:05;;;;;;;16.60;11.88;;;9.40;99.90;;;;;;5121075;27;20035;-67
2023/04/10 06:43:33;;;;;;;19.13;11.73;;;9.60;99.90;;;;;;5125363;27;20107;-67
2023/04/10 06:45:59;;;;;;;15.73;11.13;;;9.70;99.90;;;;;;5123739;27;20031;-67
2023/04/10 06:48:25;;;;;;;20.05;13.77;;;9.70;99.90;;;;;;5120272;27;20027;-68
2023/04/10 06:50:50;;;;;;;16.60;12.00;;;9.90;99.90;;;;;;5123409;27;20023;-67
2023/04/10 06:53:16;;;;;;;14.43;11.75;;;9.90;99.90;;;;;;5124172;27;20095;-68
2023/04/10 06:55:41;;;;;;;13.20;10.98;;;9.90;99.90;;;;;;5118081;27;20455;-68
2023/04/10 06:58:07;;;;;;;15.75;10.77;;;9.90;99.90;;;;;;5132305;27;20026;-67
2023/04/10 07:00:32;;;;;;;13.90;10.45;;;10.00;99.90;;;;;;5124813;27;20493;-67
2023/04/10 07:02:58;;;;;;;15.35;10.95;;;10.00;99.90;;;;;;5123357;27;20032;-68
2023/04/10 07:05:24;;;;;;;15.75;10.32;;;10.00;99.90;;;;;;5126149;27;20026;-68
2023/04/10 07:07:49;;;;;;;16.02;11.52;;;10.10;99.90;;;;;;5118553;27;20027;-67
2023/04/10 07:10:15;;;;;;;12.30;10.30;;;10.20;99.90;;;;;;5123904;27;20767;-67
2023/04/10 07:12:42;;;;;;;15.27;10.98;;;10.20;99.90;;;;;;5123410;27;20027;-67
2023/04/10 07:15:08;;;;;;;15.23;11.15;;;10.30;99.90;;;;;;5124811;27;20060;-68
2023/04/10 07:17:33;;;;;;;16.23;11.63;;;10.30;99.90;;;;;;5120013;27;20023;-67
2023/04/10 07:19:59;;;;;;;13.98;10.60;;;10.30;99.90;;;;;;5121759;27;20399;-67
2023/04/10 07:22:25;;;;;;;13.02;11.30;;;10.50;99.90;;;;;;5126901;27;20039;-68
2023/04/10 07:24:51;;;;;;;13.68;11.13;;;10.50;99.90;;;;;;5122416;27;20023;-67
2023/04/10 07:27:17;;;;;;;13.00;10.50;;;10.60;99.90;;;;;;5123524;27;20436;-68
2023/04/10 07:29:42;;;;;;;18.30;11.80;;;10.60;99.90;;;;;;5122558;27;20084;-68
2023/04/10 07:32:08;;;;;;;14.32;11.32;;;10.70;99.90;;;;;;5123710;27;20072;-67
2023/04/10 07:34:34;;;;;;;16.40;11.32;;;10.80;99.90;;;;;;5122802;27;20047;-67
2023/04/10 07:36:59;;;;;;;12.65;10.07;;;10.90;99.90;;;;;;5125776;27;20031;-69
2023/04/10 07:39:25;;;;;;;12.88;10.65;;;10.90;99.90;;;;;;5116468;27;20490;-68
2023/04/10 07:41:56;;;;;;;15.43;11.55;;;11.00;99.90;;;;;;5122866;27;20445;-68
2023/04/10 07:44:21;;;;;;;12.90;10.93;;;11.00;99.90;;;;;;5120573;27;20053;-69
2023/04/10 07:46:47;;;;;;;13.90;10.52;;;11.10;99.90;;;;;;5118949;27;20638;-68
2023/04/10 07:49:12;;;;;;;12.80;9.80;;;11.20;99.90;;;;;;5127648;27;20076;-69
2023/04/10 07:51:38;;;;;;;13.00;9.68;;;11.30;99.90;;;;;;5122088;27;20110;-67
2023/04/10 07:54:04;;;;;;;12.77;10.00;;;11.40;99.90;;;;;;5129942;27;20054;-68
2023/04/10 07:56:32;;;;;;;14.93;10.25;;;11.50;99.90;;;;;;5120949;27;20054;-69
2023/04/10 07:59:02;;;;;;;12.73;9.15;;;11.70;99.90;;;;;;5119367;27;20027;-67
2023/04/10 08:01:28;;;;;;;10.82;9.60;;;11.80;99.90;;;;;;5120898;27;20138;-67
2023/04/10 08:03:57;;;;;;;12.00;8.75;;;12.00;99.90;;;;;;5123713;27;20054;-72
2023/04/10 08:06:22;;;;;;;10.63;8.23;;;12.20;99.90;;;;;;5119136;27;20028;-69
2023/04/10 08:08:48;;;;;;;11.38;8.93;;;12.30;99.90;;;;;;5125471;27;20027;-68
2023/04/10 08:11:29;;;;;;;10.10;9.00;;;12.60;99.90;;;;;;5125233;27;20552;-68
2023/04/10 08:13:58;;;;;;;12.38;10.23;;;12.70;99.90;;;;;;5123076;27;20051;-68
2023/04/10 08:16:25;;;;;;;9.43;7.75;;;12.90;99.90;;;;;;5123863;28;20024;-71
2023/04/10 08:18:51;;;;;;;10.07;8.73;;;13.10;99.90;;;;;;5125106;27;20063;-70
2023/04/10 08:21:18;;;;;;;11.13;8.57;;;13.10;99.90;;;;;;5124643;27;20727;-69
2023/04/10 08:23:45;;;;;;;12.27;8.50;;;13.20;99.90;;;;;;5124705;27;20035;-68
2023/04/10 08:26:12;;;;;;;8.57;7.60;;;13.30;99.90;;;;;;5118968;27;20763;-68
2023/04/10 08:28:37;;;;;;;8.57;7.70;;;13.30;99.90;;;;;;5125457;27;20535;-70
2023/04/10 08:31:03;;;;;;;8.70;7.78;;;13.50;99.90;;;;;;5121300;28;20024;-68
2023/04/10 08:33:30;;;;;;;8.82;7.53;;;13.50;99.90;;;;;;5120603;28;20028;-68
2023/04/10 08:35:56;;;;;;;9.30;7.35;;;13.60;99.90;;;;;;5124900;28;20019;-68
2023/04/10 08:38:23;;;;;;;7.60;6.80;;;13.80;99.90;;;;;;5122401;27;20035;-70
2023/04/10 08:40:50;;;;;;;9.18;7.85;;;13.80;99.90;;;;;;5124473;27;20063;-70
2023/04/10 08:43:16;;;;;;;9.90;6.95;;;13.80;99.90;;;;;;5117796;28;20071;-71
2023/04/10 08:45:41;;;;;;;7.25;6.20;;;13.80;99.90;;;;;;5122210;27;20078;-70
2023/04/10 08:48:09;;;;;;;8.82;6.78;;;13.80;99.90;;;;;;5114824;28;20076;-69
2023/04/10 08:50:41;;;;;;;7.95;6.50;;;13.90;99.90;;;;;;5125016;28;20053;-68
2023/04/10 08:53:14;;;;;;;7.95;6.80;;;13.90;99.90;;;;;;5121186;27;20027;-71
2023/04/10 08:55:40;;;;;;;7.75;7.05;;;14.00;99.90;;;;;;5122927;28;20027;-69
2023/04/10 08:58:07;;;;;;;7.78;6.35;;;14.10;99.90;;;;;;5122725;27;20019;-70
2023/04/10 09:00:34;;;;;;;8.82;7.38;;;14.30;99.90;;;;;;5123332;27;20023;-70
2023/04/10 09:03:03;;;;;;;8.27;6.68;;;14.40;99.90;;;;;;5118515;27;20126;-69
2023/04/10 09:05:29;;;;;;;9.60;7.32;;;14.40;99.90;;;;;;5125546;27;20024;-69
2023/04/10 09:07:55;;;;;;;7.32;6.63;;;14.60;99.90;;;;;;5124735;27;20506;-69
2023/04/10 09:10:21;;;;;;;7.45;6.38;;;14.60;99.90;;;;;;5124728;27;20027;-70
2023/04/10 09:12:48;;;;;;;7.05;6.32;;;14.60;99.90;;;;;;5125911;27;20492;-70
2023/04/10 09:15:14;;;;;;;15.63;11.38;;;14.70;99.90;;;;;;5101212;27;20039;-71
2023/04/10 09:18:02;;;;;;;10.25;7.80;;;14.70;99.90;;;;;;5114952;27;20031;-71
2023/04/10 09:20:29;;;;;;;7.00;6.28;;;14.70;99.90;;;;;;5118470;27;20027;-70
2023/04/10 09:22:55;;;;;;;8.30;6.88;;;14.80;99.90;;;;;;5120083;27;20122;-68
2023/04/10 09:25:35;;;;;;;16.15;10.68;;;14.90;99.90;;;;;;5115642;27;20106;-68
2023/04/10 09:28:05;;;;;;;6.93;6.20;;;15.10;99.90;;;;;;5120671;27;20046;-68
2023/04/10 09:30:34;;;;;;;9.13;6.88;;;15.00;99.90;;;;;;5119472;27;20054;-69
2023/04/10 09:33:00;;;;;;;8.48;6.18;;;15.20;99.90;;;;;;5118742;27;20016;-68
2023/04/10 09:35:36;;;;;;;8.60;7.22;;;15.30;99.90;;;;;;5118264;27;20043;-68
2023/04/10 09:38:13;;;;;;;14.07;9.25;;;15.40;99.90;;;;;;5119367;27;20033;-68
2023/04/10 09:40:38;;;;;;;8.63;6.30;;;15.50;99.90;;;;;;5122769;27;20047;-68
2023/04/10 09:43:15;;;;;;;6.93;6.30;;;15.30;99.90;;;;;;5118985;27;20384;-69
2023/04/10 09:45:50;;;;;;;9.63;6.20;;;15.30;99.90;;;;;;5117611;27;20034;-69
2023/04/10 09:48:16;;;;;;;9.55;6.30;;;15.40;99.90;;;;;;5116661;27;20506;-68
2023/04/10 09:50:42;;;;;;;7.20;6.50;;;15.40;99.90;;;;;;5118190;27;20043;-68
2023/04/10 09:53:13;;;;;;;11.52;6.53;;;15.50;99.90;;;;;;5117571;27;20073;-67
2023/04/10 09:55:41;;;;;;;7.53;6.22;;;15.40;99.90;;;;;;5121115;27;20068;-69
2023/04/10 09:58:07;;;;;;;10.23;6.32;;;15.40;99.90;;;;;;5118878;27;20037;-68
2023/04/10 10:00:44;;;;;;;8.50;7.38;;;15.40;99.90;;;;;;5122239;27;20023;-68
2023/04/10 10:03:12;;;;;;;6.57;5.93;;;15.30;99.90;;;;;;5118501;27;20035;-68
2023/04/10 10:05:40;;;;;;;9.82;7.38;;;15.40;99.90;;;;;;5114140;27;21149;-68
2023/04/10 10:08:09;;;;;;;7.18;6.15;;;15.40;99.90;;;;;;5118583;27;20031;-69
2023/04/10 10:10:40;;;;;;;6.95;6.25;;;15.50;99.90;;;;;;5117274;27;20050;-71
2023/04/10 10:13:08;;;;;;;8.90;5.95;;;15.60;99.90;;;;;;5121738;27;20023;-69
2023/04/10 10:15:42;;;;;;;7.20;6.50;;;15.50;99.90;;;;;;5118206;27;20031;-68
2023/04/10 10:18:32;;;;;;;16.83;5.35;;;15.60;99.90;;;;;;5117998;27;20490;-69
2023/04/10 10:20:59;;;;;;;7.20;5.18;;;15.60;99.90;;;;;;5120550;27;20023;-69
2023/04/10 10:23:26;;;;;;;7.43;5.57;;;15.70;99.90;;;;;;5121946;27;20031;-69
2023/04/10 10:25:53;;;;;;;7.53;5.10;;;15.80;99.90;;;;;;5119821;27;20020;-68
2023/04/10 10:28:20;;;;;;;8.95;6.00;;;15.80;99.90;;;;;;5117675;27;20019;-69
2023/04/10 10:30:50;;;;;;;7.90;5.65;;;16.00;99.90;;;;;;5114967;27;20381;-68
2023/04/10 10:33:16;;;;;;;6.28;5.75;;;16.10;99.90;;;;;;5118273;27;20035;-69
2023/04/10 10:35:43;;;;;;;7.13;5.60;;;16.20;99.90;;;;;;5118199;27;20019;-68
2023/04/10 10:38:09;;;;;;;8.32;6.03;;;16.10;99.90;;;;;;5114538;27;20389;-69
2023/04/10 10:41:12;;;;;;;5.25;4.75;;;16.20;99.90;;;;;;5119973;27;20016;-68
2023/04/10 10:43:56;;;;;;;;;;;16.30;99.90;;;;;;5103303;27;20043;-68
2023/04/10 10:46:34;;;;;;;5.88;5.28;;;16.20;99.90;;;;;;5118255;27;19912;-69
2023/04/10 10:49:01;;;;;;;9.23;5.93;;;16.50;99.90;;;;;;5118652;27;20023;-69
2023/04/10 10:52:02;;;;;;;6.10;5.57;;;16.50;99.90;;;;;;5116304;27;20390;-69
2023/04/10 10:54:31;;;;;;;6.30;5.32;;;16.60;99.90;;;;;;5063752;28;20025;-69
2023/04/10 10:56:58;;;;;;;5.70;4.68;;;16.70;99.90;;;;;;5105711;27;20035;-69
2023/04/10 10:59:42;;;;;;;4.60;4.20;;;16.80;99.90;;;;;;5118228;27;20467;-69
2023/04/10 11:02:15;;;;;;;6.13;4.35;;;16.90;99.90;;;;;;5116054;27;20035;-68
2023/04/10 11:04:43;;;;;;;5.25;4.72;;;16.90;99.90;;;;;;5113040;27;20028;-68
2023/04/10 11:07:09;;;;;;;4.38;4.03;;;16.90;99.90;;;;;;5117797;27;20032;-69
2023/04/10 11:09:55;;;;;;;4.78;4.38;;;17.00;99.90;;;;;;5116167;27;20019;-69
2023/04/10 11:12:23;;;;;;;5.82;5.22;;;17.10;99.90;;;;;;5120454;27;20042;-69
2023/04/10 11:15:00;;;;;;;5.43;4.93;;;17.20;99.90;;;;;;5118022;27;20483;-71
2023/04/10 11:17:50;;;;;;;4.80;4.40;;;17.30;99.90;;;;;;5116781;27;20068;-69
2023/04/10 11:20:26;;;;;;;5.60;5.10;;;17.50;99.90;;;;;;5117363;27;20100;-67
2023/04/10 11:23:11;;;;;;;4.72;4.32;;;17.50;99.90;;;;;;5119471;27;20110;-68
2023/04/10 11:25:51;;;;;;;5.00;4.25;;;17.50;99.90;;;;;;5114408;27;20022;-71
2023/04/10 11:28:32;;;;;;;6.65;4.13;;;17.70;99.90;;;;;;5114848;27;20019;-69
2023/04/10 11:31:18;;;;;;;4.22;3.75;;;17.80;99.90;;;;;;5117061;27;20080;-69
2023/04/10 11:33:48;;;;;;;4.85;4.05;;;17.80;99.90;;;;;;5111219;27;20019;-68
2023/04/10 11:36:18;;;;;;;7.03;3.53;;;18.00;99.90;;;;;;5118161;27;20111;-69
2023/04/10 11:39:07;;;;;;;7.68;4.60;;;18.00;99.90;;;;;;5118228;27;20087;-69
2023/04/10 11:41:41;;;;;;;4.60;4.20;;;18.00;99.90;;;;;;5121071;27;20060;-68
2023/04/10 11:44:12;;;;;;;7.10;3.80;;;18.10;99.90;;;;;;5117570;27;20031;-69
2023/04/10 11:46:40;;;;;;;6.43;3.58;;;18.10;99.90;;;;;;5116078;27;20019;-69
2023/04/10 11:49:08;;;;;;;4.90;3.83;;;18.20;99.90;;;;;;5116218;27;20102;-69
2023/04/10 11:51:35;;;;;;;3.92;3.38;;;18.20;99.90;;;;;;5117171;27;20026;-69
2023/04/10 11:54:12;;;;;;;4.40;4.00;;;18.20;99.90;;;;;;5117558;27;20035;-69
2023/04/10 11:56:39;;;;;;;4.43;4.03;;;18.30;99.90;;;;;;5116355;27;20016;-67
2023/04/10 11:59:24;;;;;;;4.15;3.63;;;18.20;99.90;;;;;;5114965;27;20935;-68
2023/04/10 12:01:53;;;;;;;3.42;3.13;;;18.30;99.90;;;;;;5118006;27;20392;-69
2023/04/10 12:04:20;;;;;;;5.30;3.65;;;18.20;99.90;;;;;;5118048;27;20016;-68
2023/04/10 12:06:45;;;;;;;3.80;3.50;;;18.20;99.90;;;;;;5116577;27;20907;-68
2023/04/10 12:09:13;;;;;;;5.55;4.20;;;18.20;99.90;;;;;;5112243;28;20019;-69
2023/04/10 12:11:46;;;;;;;6.22;4.10;;;18.10;99.90;;;;;;5112182;28;20112;-68
2023/04/10 12:14:12;;;;;;;4.50;3.67;;;18.20;99.90;;;;;;5113969;27;20071;-68
2023/04/10 12:16:38;;;;;;;5.25;3.95;;;18.10;99.90;;;;;;5114292;28;20023;-67
2023/04/10 12:19:04;;;;;;;4.10;3.67;;;18.30;99.90;;;;;;5116019;27;20023;-67
2023/04/10 12:21:30;;;;;;;6.18;3.33;;;18.30;99.90;;;;;;5115595;28;20167;-67
2023/04/10 12:23:56;;;;;;;4.30;3.90;;;18.40;99.90;;;;;;5114532;27;20031;-67
2023/04/10 12:26:22;;;;;;;5.80;4.00;;;18.50;99.90;;;;;;5114320;27;20018;-68
2023/04/10 12:28:56;;;;;;;4.00;3.70;;;18.60;99.90;;;;;;5120194;27;20023;-68
2023/04/10 12:31:35;;;;;;;5.07;4.28;;;18.60;99.90;;;;;;5113962;28;20118;-68
2023/04/10 12:34:04;;;;;;;4.40;3.75;;;18.70;99.90;;;;;;5115996;27;20035;-68
2023/04/10 12:36:33;;;;;;;4.85;4.40;;;18.70;99.90;;;;;;5112239;27;20015;-68
2023/04/10 12:39:01;;;;;;;4.53;4.13;;;18.70;99.90;;;;;;5118161;27;20030;-68
2023/04/10 12:41:29;;;;;;;4.03;3.72;;;18.80;99.90;;;;;;5124049;27;20035;-68
2023/04/10 12:44:12;;;;;;;5.57;3.35;;;18.90;99.90;;;;;;5116958;27;20049;-68
2023/04/10 12:46:38;;;;;;;;;;;18.90;99.90;;;;;;5116119;27;20031;-67
2023/04/10 12:49:11;;;;;;;3.42;3.13;;;18.80;99.90;;;;;;5117728;27;19908;-67